Data for 04/13/2013

Time Sea-Level Adjusted Pressure Absolute Pressure Temperature Relative Humidity Dew Point Precipitation   
(mb) (inHg) (mb) (inHg) (C) (F) (%) (C) (F) (mm) (in)
00:01 1007 29.74 836 24.69 5.2 41.4 38 -8 17.6 0 0
00:02 1007 29.74 836 24.69 5.2 41.3 38 -8.1 17.5 0 0
00:03 1007 29.74 836 24.69 5.2 41.3 38 -7.8 17.9 0 0
00:04 1007 29.74 836 24.69 5.1 41.2 40 -7.4 18.8 0 0
00:05 1007 29.74 836 24.69 5 41 41 -7.3 18.8 0 0
00:06 1007 29.74 836 24.69 4.8 40.7 41 -7.2 19 0 0
00:07 1007 29.74 836 24.69 4.7 40.5 41 -7.3 18.9 0 0
00:08 1007 29.74 836 24.69 4.7 40.5 40 -7.7 18.1 0 0
00:09 1007 29.74 836 24.69 4.8 40.6 40 -7.6 18.3 0 0
00:10 1007 29.74 836 24.69 4.8 40.7 41 -7.2 19 0 0
00:11 1007 29.74 836 24.69 4.9 40.7 41 -7.4 18.6 0 0
00:12 1007 29.74 836 24.69 5 40.9 41 -7.3 18.9 0 0
00:13 1007 29.74 836 24.69 4.9 40.9 40 -7.4 18.7 0 0
00:14 1007 29.74 836 24.69 4.9 40.9 40 -7.6 18.4 0 0
00:15 1007 29.74 836 24.69 5 41 40 -7.6 18.4 0 0
00:16 1007 29.74 836 24.69 5.1 41.1 38 -8 17.6 0 0
00:17 1007 29.74 836 24.69 5.2 41.4 39 -7.8 18 0 0
00:18 1007 29.74 836 24.69 5.2 41.4 39 -7.8 18 0 0
00:19 1007 29.74 836 24.69 5.2 41.3 39 -7.6 18.3 0 0
00:20 1007 29.74 836 24.69 5.1 41.2 40 -7.6 18.4 0 0
00:21 1007 29.74 836 24.69 5 41.1 41 -7 19.3 0 0
00:22 1007 29.74 836 24.69 5 41 42 -7 19.4 0 0
00:23 1007 29.74 836 24.69 4.9 40.8 40 -7.6 18.4 0 0
00:24 1007 29.74 836 24.69 4.9 40.8 39 -7.9 17.8 0 0
00:25 1007 29.74 836 24.69 5 40.9 39 -7.7 18.1 0 0
00:26 1007 29.74 836 24.69 5 41 38 -8.3 17 0 0
00:27 1007 29.74 836 24.69 5.1 41.2 38 -8.1 17.4 0 0
00:28 1007 29.74 836 24.69 5.2 41.4 38 -7.9 17.8 0 0
00:29 1007 29.74 836 24.69 5.3 41.5 37 -8.2 17.3 0 0
00:30 1007 29.74 836 24.69 5.3 41.5 38 -8.1 17.5 0 0
00:31 1007 29.74 836 24.69 5.3 41.6 37 -8.2 17.3 0 0
00:32 1007 29.74 836 24.69 5.4 41.6 39 -7.5 18.4 0 0
00:33 1007 29.74 836 24.69 5.3 41.6 41 -6.8 19.8 0 0
00:34 1007 29.74 836 24.69 5.1 41.1 40 -7.5 18.5 0 0
00:35 1007 29.74 836 24.69 5 41 38 -8.2 17.2 0 0
00:36 1007 29.74 836 24.69 5.2 41.3 37 -8.2 17.2 0 0
00:37 1007 29.74 836 24.69 5.4 41.7 38 -7.7 18.1 0 0
00:38 1007 29.74 836 24.69 5.4 41.7 38 -7.6 18.2 0 0
00:39 1007 29.74 836 24.69 5.4 41.7 37 -8 17.6 0 0
00:40 1007 29.74 836 24.69 5.4 41.7 39 -7.4 18.7 0 0
00:41 1007 29.74 836 24.69 5.3 41.5 39 -7.6 18.4 0 0
00:42 1007 29.74 836 24.69 5.2 41.4 38 -7.9 17.7 0 0
00:43 1007 29.74 836 24.69 5.3 41.5 34 -9.2 15.4 0 0
00:44 1007 29.74 836 24.69 5.5 41.9 37 -8.2 17.3 0 0
00:45 1007 29.74 836 24.69 5.6 42.1 39 -7.3 18.8 0 0
00:46 1007 29.74 836 24.69 5.5 41.9 37 -8.1 17.4 0 0
00:47 1007 29.74 836 24.69 5.6 42.1 33 -9.5 14.9 0 0
00:48 1007 29.74 836 24.69 5.9 42.7 33 -9.1 15.6 0 0
00:49 1007 29.74 836 24.69 6.1 43 33 -9 15.7 0 0
00:50 1007 29.74 836 24.69 6.2 43.2 32 -9.3 15.2 0 0
00:51 1007 29.74 836 24.69 6.3 43.3 32 -9.4 15.1 0 0
00:52 1007 29.74 836 24.69 6.3 43.4 33 -8.7 16.3 0 0
00:53 1007 29.74 836 24.69 6.4 43.4 35 -7.9 17.9 0 0
00:54 1007 29.74 836 24.69 6.2 43.1 35 -8.2 17.3 0 0
00:55 1007 29.74 836 24.69 6.1 42.9 33 -8.9 16 0 0
00:56 1007 29.74 836 24.69 6.1 42.9 34 -8.6 16.4 0 0
00:57 1007 29.74 836 24.69 6 42.8 33 -9.1 15.6 0 0
00:58 1007 29.74 837 24.72 6.1 42.9 35 -8.4 16.8 0 0
00:59 1007 29.74 837 24.72 6.1 42.9 32 -9.4 15.1 0 0
01:00 1007 29.74 837 24.72 6.1 43.1 33 -8.8 16.2 0 0
01:01 1007 29.74 837 24.72 6.2 43.1 32 -9.4 15.1 0 0
01:02 1007 29.74 837 24.72 6.2 43.2 35 -8 17.6 0 0
01:03 1007 29.74 837 24.72 6.2 43.2 35 -8.1 17.5 0 0
01:04 1007 29.74 836 24.69 6.2 43.1 35 -8.3 17 0 0
01:05 1007 29.74 836 24.69 6.3 43.3 32 -9.1 15.6 0 0
01:06 1007 29.74 836 24.69 6.4 43.6 33 -8.5 16.7 0 0
01:07 1007 29.74 836 24.69 6.6 43.9 32 -8.9 15.9 0 0
01:08 1007 29.74 836 24.69 6.8 44.3 30 -9.4 15 0 0
01:09 1007 29.74 836 24.69 7 44.7 31 -9 15.8 0 0
01:10 1007 29.74 836 24.69 7.1 44.8 31 -8.8 16.2 0 0
01:11 1007 29.74 836 24.69 7.1 44.8 32 -8.7 16.3 0 0
01:12 1007 29.74 836 24.69 7 44.6 33 -8.3 17 0 0
01:13 1007 29.74 836 24.69 6.9 44.5 33 -8.3 17.1 0 0
01:14 1007 29.74 836 24.69 6.8 44.3 33 -8.2 17.2 0 0
01:15 1007 29.74 836 24.69 6.7 44.1 34 -8 17.6 0 0
01:16 1007 29.74 836 24.69 6.7 44 35 -7.8 17.9 0 0
01:17 1007 29.74 836 24.69 6.5 43.8 33 -8.5 16.7 0 0
01:18 1007 29.74 836 24.69 6.5 43.7 33 -8.5 16.8 0 0
01:19 1007 29.74 836 24.69 6.5 43.6 34 -8.4 16.9 0 0
01:20 1007 29.74 836 24.69 6.5 43.6 33 -8.6 16.6 0 0
01:21 1007 29.74 836 24.69 6.4 43.6 34 -8.2 17.2 0 0
01:22 1007 29.74 836 24.69 6.4 43.6 34 -8.1 17.4 0 0
01:23 1007 29.74 836 24.69 6.4 43.5 35 -8 17.5 0 0
01:24 1007 29.74 836 24.69 6.3 43.4 35 -8.1 17.5 0 0
01:25 1007 29.74 836 24.69 6.3 43.4 34 -8.2 17.2 0 0
01:26 1007 29.74 836 24.69 6.3 43.3 36 -7.8 17.9 0 0
01:27 1007 29.74 836 24.69 6.2 43.2 37 -7.5 18.6 0 0
01:28 1007 29.74 836 24.69 6.1 43 37 -7.4 18.7 0 0
01:29 1007 29.74 836 24.69 6 42.8 38 -7.4 18.7 0 0
01:30 1007 29.74 836 24.69 5.9 42.7 36 -7.9 17.7 0 0
01:31 1007 29.74 836 24.69 5.9 42.7 35 -8.4 17 0 0
01:32 1007 29.74 836 24.69 6.1 43 36 -8 17.5 0 0
01:33 1007 29.74 836 24.69 6.3 43.3 35 -8.1 17.4 0 0
01:34 1007 29.74 836 24.69 6.6 43.9 33 -8.4 16.9 0 0
01:35 1007 29.74 836 24.69 6.9 44.4 34 -8 17.6 0 0
01:36 1007 29.74 836 24.69 7.1 44.9 33 -8.3 17.1 0 0
01:37 1007 29.74 836 24.69 7.4 45.3 33 -7.8 17.9 0 0
01:38 1007 29.74 836 24.69 7.6 45.7 31 -8.3 17 0 0
01:39 1007 29.74 836 24.69 7.8 46.1 31 -8.4 16.9 0 0
01:40 1007 29.74 836 24.69 8 46.4 32 -7.7 18.2 0 0
01:41 1007 29.74 836 24.69 8.1 46.6 30 -8.5 16.6 0 0
01:42 1007 29.74 836 24.69 8.1 46.7 30 -8.3 17.1 0 0
01:43 1007 29.74 836 24.69 8.3 46.9 30 -8.4 16.9 0 0
01:44 1007 29.74 836 24.69 8.4 47 31 -7.8 18 0 0
01:45 1007 29.74 836 24.69 8.3 46.9 30 -8.3 17.1 0 0
01:46 1007 29.74 836 24.69 8.2 46.8 30 -8.4 16.9 0 0
01:47 1007 29.74 836 24.69 8.3 46.9 30 -8.2 17.3 0 0
01:48 1007 29.74 836 24.69 8.3 46.9 31 -7.8 18 0 0
01:49 1007 29.74 836 24.69 8.1 46.6 31 -7.9 17.8 0 0
01:50 1007 29.74 836 24.69 8 46.4 32 -7.7 18.1 0 0
01:51 1007 29.74 836 24.69 7.9 46.2 32 -7.7 18.1 0 0
01:52 1007 29.74 836 24.69 7.9 46.2 32 -7.8 18 0 0
01:53 1007 29.74 836 24.69 7.9 46.3 33 -7.4 18.7 0 0
01:54 1007 29.74 836 24.69 7.9 46.2 33 -7.2 19 0 0
01:55 1007 29.74 836 24.69 7.9 46.2 32 -7.7 18.2 0 0
01:56 1007 29.74 836 24.69 7.9 46.3 33 -7.3 18.9 0 0
01:57 1007 29.74 836 24.69 8 46.4 33 -7.5 18.5 0 0
01:58 1007 29.74 836 24.69 8 46.3 34 -7.1 19.2 0 0
01:59 1007 29.74 836 24.69 7.9 46.3 34 -7 19.3 0 0
02:00 1007 29.74 836 24.69 7.9 46.2 33 -7.5 18.6 0 0
02:01 1007 29.74 836 24.69 7.9 46.1 34 -7.2 19.1 0 0
02:02 1007 29.74 836 24.69 7.9 46.2 33 -7.4 18.7 0 0
02:03 1007 29.74 836 24.69 7.9 46.2 33 -7.2 19 0 0
02:04 1007 29.74 836 24.69 7.9 46.2 35 -6.8 19.8 0 0
02:05 1007 29.74 836 24.69 7.8 46 36 -6.4 20.5 0 0
02:06 1007 29.74 836 24.69 7.7 45.8 35 -6.7 20 0 0
02:07 1007 29.74 836 24.69 7.7 45.8 34 -7.1 19.2 0 0
02:08 1007 29.74 836 24.69 7.8 46 35 -6.7 20 0 0
02:09 1007 29.74 836 24.69 7.7 45.8 35 -6.7 20 0 0
02:10 1007 29.74 836 24.69 7.7 45.8 35 -6.8 19.8 0 0
02:11 1007 29.74 836 24.69 7.7 45.8 36 -6.6 20.1 0 0
02:12 1007 29.74 836 24.69 7.6 45.7 36 -6.5 20.3 0 0
02:13 1007 29.74 836 24.69 7.6 45.7 35 -6.8 19.8 0 0
02:14 1007 29.74 836 24.69 7.6 45.7 35 -7 19.5 0 0
02:15 1007 29.74 836 24.69 7.6 45.7 35 -6.7 19.9 0 0
02:16 1007 29.74 836 24.69 7.7 45.8 35 -6.7 20 0 0
02:17 1007 29.74 836 24.69 7.6 45.7 36 -6.5 20.3 0 0
02:18 1007 29.74 836 24.69 7.6 45.6 36 -6.5 20.2 0 0
02:19 1007 29.74 836 24.69 7.6 45.7 36 -6.7 20 0 0
02:20 1007 29.74 836 24.69 7.7 45.8 36 -6.4 20.6 0 0
02:21 1006 29.71 836 24.69 7.6 45.7 36 -6.5 20.3 0 0
02:22 1007 29.74 836 24.69 7.6 45.7 37 -6.2 20.9 0 0
02:23 1007 29.74 836 24.69 7.6 45.6 36 -6.5 20.2 0 0
02:24 1006 29.71 836 24.69 7.5 45.6 37 -6.2 20.8 0 0
02:25 1006 29.71 836 24.69 7.5 45.5 37 -6.2 20.8 0 0
02:26 1006 29.71 836 24.69 7.5 45.4 37 -6.2 20.8 0 0
02:27 1006 29.71 836 24.69 7.5 45.4 37 -6.3 20.7 0 0
02:28 1006 29.71 836 24.69 7.4 45.3 38 -6.1 21.1 0 0
02:29 1006 29.71 836 24.69 7.4 45.3 38 -5.9 21.3 0 0
02:30 1006 29.71 836 24.69 7.3 45.2 37 -6.4 20.5 0 0
02:31 1006 29.71 836 24.69 7.4 45.3 37 -6.5 20.2 0 0
02:32 1006 29.71 835 24.66 7.4 45.2 37 -6.3 20.6 0 0
02:33 1006 29.71 835 24.66 7.4 45.3 36 -6.9 19.6 0 0
02:34 1006 29.71 835 24.66 7.4 45.3 36 -6.6 20.1 0 0
02:35 1006 29.71 835 24.66 7.4 45.4 37 -6.3 20.7 0 0
02:36 1006 29.71 835 24.66 7.4 45.3 37 -6.4 20.4 0 0
02:37 1006 29.71 835 24.66 7.4 45.3 38 -6 21.2 0 0
02:38 1006 29.71 835 24.66 7.3 45.2 38 -6.1 21 0 0
02:39 1006 29.71 835 24.66 7.3 45.1 38 -6 21.2 0 0
02:40 1006 29.71 835 24.66 7.2 45 39 -5.9 21.3 0 0
02:41 1006 29.71 835 24.66 7.2 44.9 38 -6.1 21.1 0 0
02:42 1006 29.71 835 24.66 7.2 44.9 39 -5.9 21.4 0 0
02:43 1006 29.71 835 24.66 7.1 44.8 40 -5.5 22.1 0 0
02:44 1006 29.71 835 24.66 7.1 44.7 40 -5.5 22 0 0
02:45 1006 29.71 835 24.66 7 44.6 41 -5.5 22.2 0 0
02:46 1006 29.71 835 24.66 6.9 44.5 40 -5.7 21.8 0 0
02:47 1006 29.71 835 24.66 6.9 44.4 41 -5.4 22.3 0 0
02:48 1006 29.71 835 24.66 6.8 44.3 42 -5.3 22.4 0 0
02:49 1006 29.71 835 24.66 6.7 44.1 41 -5.6 21.8 0 0
02:50 1006 29.71 835 24.66 6.7 44.1 41 -5.4 22.2 0 0
02:51 1006 29.71 835 24.66 6.7 44.1 41 -5.7 21.7 0 0
02:52 1006 29.71 835 24.66 6.8 44.2 42 -5.1 22.8 0 0
02:53 1006 29.71 835 24.66 6.7 44.1 43 -5 22.9 0 0
02:54 1006 29.71 835 24.66 6.7 44 42 -5.2 22.6 0 0
02:55 1006 29.71 835 24.66 6.6 43.9 43 -5 23.1 0 0
02:56 1006 29.71 835 24.66 6.5 43.8 44 -4.8 23.3 0 0
02:57 1006 29.71 835 24.66 6.4 43.6 43 -5.3 22.5 0 0
02:58 1006 29.71 835 24.66 6.4 43.5 44 -5.1 22.9 0 0
02:59 1006 29.71 835 24.66 6.3 43.3 44 -4.9 23.1 0 0
03:00 1006 29.71 835 24.66 6.3 43.3 44 -5.1 22.9 0 0
03:01 1006 29.71 835 24.66 6.2 43.2 44 -5.1 22.7 0 0
03:02 1006 29.71 835 24.66 6.2 43.1 45 -5 23 0 0
03:03 1006 29.71 835 24.66 6.1 43 46 -4.8 23.4 0 0
03:04 1006 29.71 835 24.66 6 42.8 46 -4.8 23.3 0 0
03:05 1006 29.71 835 24.66 5.9 42.7 45 -5 23 0 0
03:06 1006 29.71 835 24.66 5.9 42.7 45 -5 23.1 0 0
03:07 1006 29.71 835 24.66 5.9 42.6 45 -5 23 0 0
03:08 1006 29.71 835 24.66 5.9 42.6 45 -5.1 22.8 0 0
03:09 1006 29.71 835 24.66 5.9 42.7 44 -5.4 22.3 0 0
03:10 1006 29.71 835 24.66 6 42.8 44 -5.3 22.5 0 0
03:11 1006 29.71 835 24.66 6 42.8 45 -5.1 22.8 0 0
03:12 1006 29.71 835 24.66 6 42.9 45 -5.1 22.8 0 0
03:13 1006 29.71 835 24.66 6 42.8 45 -5.1 22.8 0 0
03:14 1006 29.71 835 24.66 6 42.8 44 -5.2 22.7 0 0
03:15 1006 29.71 835 24.66 6 42.8 45 -5 23 0 0
03:16 1006 29.71 835 24.66 6 42.7 46 -4.8 23.4 0 0
03:17 1006 29.71 835 24.66 5.9 42.6 46 -4.8 23.4 0 0
03:18 1006 29.71 835 24.66 5.9 42.6 46 -4.9 23.1 0 0
03:19 1006 29.71 835 24.66 5.9 42.6 45 -5.1 22.8 0 0
03:20 1006 29.71 835 24.66 5.9 42.7 45 -5.2 22.6 0 0
03:21 1006 29.71 835 24.66 6.1 42.9 44 -5.4 22.4 0 0
03:22 1006 29.71 835 24.66 6.2 43.2 44 -5.1 22.9 0 0
03:23 1006 29.71 835 24.66 6.3 43.4 45 -4.8 23.4 0 0
03:24 1006 29.71 835 24.66 6.4 43.5 44 -4.9 23.2 0 0
03:25 1006 29.71 835 24.66 6.4 43.5 43 -5.2 22.7 0 0
03:26 1006 29.71 835 24.66 6.5 43.6 45 -4.7 23.5 0 0
03:27 1006 29.71 835 24.66 6.4 43.5 46 -4.4 24 0 0
03:28 1006 29.71 835 24.66 6.2 43.2 46 -4.5 24 0 0
03:29 1006 29.71 835 24.66 6.1 43 47 -4.5 23.9 0 0
03:30 1006 29.71 835 24.66 6 42.7 47 -4.5 23.8 0 0
03:31 1006 29.71 835 24.66 5.9 42.6 47 -4.5 23.9 0 0
03:32 1006 29.71 835 24.66 5.9 42.7 47 -4.6 23.7 0 0
03:33 1006 29.71 835 24.66 5.9 42.7 49 -4.1 24.7 0 0
03:34 1006 29.71 835 24.66 5.8 42.5 50 -3.8 25.2 0 0
03:35 1006 29.71 835 24.66 5.7 42.3 50 -3.8 25.2 0 0
03:36 1006 29.71 835 24.66 5.7 42.2 50 -3.9 24.9 0 0
03:37 1006 29.71 835 24.66 5.7 42.3 51 -3.7 25.4 0 0
03:38 1006 29.71 835 24.66 5.7 42.3 48 -4.5 24 0 0
03:39 1006 29.71 835 24.66 5.9 42.6 48 -4.3 24.2 0 0
03:40 1006 29.71 835 24.66 6 42.7 49 -3.9 24.9 0 0
03:41 1006 29.71 835 24.66 5.9 42.6 48 -4.1 24.6 0 0
03:42 1006 29.71 835 24.66 5.9 42.6 49 -4 24.8 0 0
03:43 1006 29.71 835 24.66 5.9 42.6 51 -3.6 25.6 0 0
03:44 1006 29.71 835 24.66 5.9 42.5 50 -3.7 25.3 0 0
03:45 1005 29.68 835 24.66 5.8 42.4 50 -3.9 25 0 0
03:46 1005 29.68 835 24.66 5.7 42.3 50 -4 24.8 0 0
03:47 1006 29.71 835 24.66 5.7 42.3 50 -3.8 25.1 0 0
03:48 1006 29.71 835 24.66 5.7 42.3 51 -3.6 25.5 0 0
03:49 1006 29.71 835 24.66 5.6 42 52 -3.6 25.6 0 0
03:50 1005 29.68 835 24.66 5.5 42 51 -3.7 25.4 0 0
03:51 1005 29.68 835 24.66 5.5 42 50 -4 24.9 0 0
03:52 1005 29.68 835 24.66 5.7 42.2 50 -4.1 24.7 0 0
03:53 1005 29.68 835 24.66 5.8 42.5 48 -4.3 24.3 0 0
03:54 1005 29.68 835 24.66 6 42.7 50 -3.7 25.3 0 0
03:55 1005 29.68 835 24.66 5.9 42.6 50 -3.6 25.4 0 0
03:56 1005 29.68 835 24.66 5.9 42.6 51 -3.5 25.7 0 0
03:57 1005 29.68 835 24.66 5.8 42.4 52 -3.4 25.9 0 0
03:58 1005 29.68 835 24.66 5.7 42.2 51 -3.6 25.5 0 0
03:59 1005 29.68 835 24.66 5.7 42.2 50 -4 24.9 0 0
04:00 1005 29.68 835 24.66 5.7 42.3 51 -3.7 25.4 0 0
04:01 1005 29.68 835 24.66 5.7 42.3 51 -3.6 25.4 0 0
04:02 1005 29.68 835 24.66 5.7 42.2 52 -3.5 25.7 0 0
04:03 1005 29.68 835 24.66 5.6 42.1 52 -3.4 25.8 0 0
04:04 1005 29.68 835 24.66 5.6 42.1 52 -3.4 25.9 0 0
04:05 1005 29.68 835 24.66 5.5 41.9 52 -3.5 25.7 0 0
04:06 1005 29.68 835 24.66 5.5 42 52 -3.5 25.7 0 0
04:07 1005 29.68 835 24.66 5.5 41.9 52 -3.5 25.6 0 0
04:08 1005 29.68 835 24.66 5.6 42 49 -4.2 24.4 0 0
04:09 1005 29.68 834 24.63 5.7 42.2 50 -3.8 25.1 0 0
04:10 1005 29.68 835 24.66 5.7 42.3 51 -3.5 25.6 0 0
04:11 1005 29.68 835 24.66 5.7 42.2 51 -3.6 25.5 0 0
04:12 1005 29.68 835 24.66 5.7 42.2 51 -3.6 25.6 0 0
04:13 1005 29.68 834 24.63 5.6 42 51 -3.7 25.3 0 0
04:14 1005 29.68 834 24.63 5.6 42 50 -4 24.8 0 0
04:15 1005 29.68 834 24.63 5.6 42.1 50 -3.9 24.9 0 0
04:16 1005 29.68 834 24.63 5.6 42.1 50 -3.9 24.9 0 0
04:17 1005 29.68 834 24.63 5.6 42.1 50 -3.9 24.9 0 0
04:18 1005 29.68 834 24.63 5.6 42.1 51 -3.8 25.1 0 0
04:19 1005 29.68 834 24.63 5.6 42.1 50 -3.9 25 0 0
04:20 1005 29.68 834 24.63 5.6 42.1 50 -3.9 25 0 0
04:21 1005 29.68 834 24.63 5.6 42.1 50 -3.8 25.1 0 0
04:22 1005 29.68 834 24.63 5.6 42.1 50 -3.9 24.9 0 0
04:23 1005 29.68 834 24.63 5.6 42.1 50 -3.9 24.9 0 0
04:24 1005 29.68 834 24.63 5.6 42.1 50 -4 24.8 0 0
04:25 1005 29.68 834 24.63 5.6 42.2 49 -4.2 24.5 0 0
04:26 1005 29.68 834 24.63 5.7 42.2 50 -4.1 24.7 0 0
04:27 1005 29.68 834 24.63 5.6 42.1 50 -4 24.8 0 0
04:28 1005 29.68 834 24.63 5.6 42.2 53 -3.2 26.2 0 0
04:29 1005 29.68 834 24.63 5.5 42 52 -3.4 25.8 0 0
04:30 1005 29.68 834 24.63 5.4 41.7 53 -3.4 25.9 0 0
04:31 1005 29.68 834 24.63 5.3 41.5 52 -3.7 25.3 0 0
04:32 1005 29.68 834 24.63 5.3 41.5 53 -3.5 25.7 0 0
04:33 1005 29.68 834 24.63 5.2 41.3 55 -3.2 26.3 0 0
04:34 1005 29.68 834 24.63 5.1 41.2 55 -3.2 26.3 0 0
04:35 1005 29.68 834 24.63 5 41.1 53 -3.7 25.3 0 0
04:36 1005 29.68 834 24.63 5 41 53 -3.7 25.3 0 0
04:37 1005 29.68 834 24.63 5.1 41.1 53 -3.7 25.3 0 0
04:38 1005 29.68 834 24.63 5.1 41.1 53 -3.7 25.3 0 0
04:39 1005 29.68 834 24.63 5.1 41.2 53 -3.6 25.4 0 0
04:40 1005 29.68 834 24.63 5.1 41.2 53 -3.8 25.2 0 0
04:41 1005 29.68 834 24.63 5.1 41.3 52 -3.9 25 0 0
04:42 1005 29.68 834 24.63 5.2 41.3 51 -4.2 24.4 0 0
04:43 1005 29.68 834 24.63 5.2 41.4 52 -3.9 25 0 0
04:44 1005 29.68 834 24.63 5.3 41.6 51 -4 24.8 0 0
04:45 1005 29.68 834 24.63 5.4 41.7 51 -4 24.8 0 0
04:46 1005 29.68 834 24.63 5.5 41.8 51 -4 24.8 0 0
04:47 1005 29.68 834 24.63 5.5 41.9 51 -3.9 24.9 0 0
04:48 1005 29.68 834 24.63 5.5 41.9 51 -3.9 25 0 0
04:49 1005 29.68 834 24.63 5.5 41.9 51 -3.8 25.1 0 0
04:50 1005 29.68 834 24.63 5.4 41.8 53 -3.3 26.1 0 0
04:51 1005 29.68 834 24.63 5.3 41.5 53 -3.6 25.5 0 0
04:52 1005 29.68 834 24.63 5.2 41.4 54 -3.3 26.1 0 0
04:53 1005 29.68 834 24.63 5.1 41.2 53 -3.6 25.5 0 0
04:54 1005 29.68 834 24.63 5.1 41.2 52 -4 24.8 0 0
04:55 1005 29.68 834 24.63 5.2 41.4 51 -4.1 24.6 0 0
04:56 1005 29.68 834 24.63 5.4 41.7 50 -4.2 24.5 0 0
04:57 1005 29.68 834 24.63 5.5 41.9 50 -4 24.9 0 0
04:58 1005 29.68 834 24.63 5.5 41.9 50 -4 24.9 0 0
04:59 1005 29.68 834 24.63 5.5 41.9 53 -3.3 26 0 0
05:00 1005 29.68 834 24.63 5.3 41.6 54 -3.1 26.4 0 0
05:01 1005 29.68 834 24.63 5.2 41.4 56 -2.9 26.7 0 0
05:02 1005 29.68 834 24.63 5.1 41.1 52 -4 24.9 0 0
05:03 1005 29.68 834 24.63 5.1 41.3 52 -3.9 24.9 0 0
05:04 1005 29.68 834 24.63 5.2 41.4 52 -3.9 24.9 0 0
05:05 1005 29.68 834 24.63 5.3 41.5 51 -4.1 24.7 0 0
05:06 1005 29.68 834 24.63 5.3 41.5 51 -4 24.8 0 0
05:07 1005 29.68 834 24.63 5.3 41.6 51 -3.9 25 0 0
05:08 1005 29.68 834 24.63 5.3 41.6 54 -3.2 26.2 0 0
05:09 1005 29.68 834 24.63 5.1 41.2 56 -2.8 26.9 0 0
05:10 1004 29.65 834 24.63 4.8 40.7 59 -2.5 27.4 0 0
05:11 1005 29.68 834 24.63 4.6 40.3 61 -2.3 27.8 0 0
05:12 1005 29.68 834 24.63 4.4 39.9 61 -2.5 27.6 0 0
05:13 1005 29.68 834 24.63 4.3 39.8 61 -2.4 27.6 0 0
05:14 1005 29.68 834 24.63 4.2 39.6 62 -2.5 27.5 0 0
05:15 1005 29.68 834 24.63 4.2 39.5 62 -2.4 27.6 0 0
05:16 1005 29.68 834 24.63 4.1 39.4 63 -2.3 27.8 0 0
05:17 1004 29.65 834 24.63 4 39.3 63 -2.4 27.7 0 0
05:18 1005 29.68 834 24.63 4 39.2 63 -2.4 27.7 0 0
05:19 1004 29.65 834 24.63 4 39.2 62 -2.5 27.4 0 0
05:20 1004 29.65 834 24.63 4 39.3 59 -3.2 26.3 0 0
05:21 1004 29.65 834 24.63 4.2 39.5 59 -3.1 26.4 0 0
05:22 1004 29.65 834 24.63 4.3 39.7 60 -2.8 26.9 0 0
05:23 1004 29.65 834 24.63 4.3 39.7 59 -3 26.7 0 0
05:24 1004 29.65 834 24.63 4.3 39.8 58 -3.1 26.4 0 0
05:25 1004 29.65 834 24.63 4.4 40 59 -2.8 26.9 0 0
05:26 1004 29.65 833 24.6 4.5 40.2 60 -2.5 27.5 0 0
05:27 1004 29.65 833 24.6 4.7 40.4 60 -2.4 27.6 0 0
05:28 1004 29.65 834 24.63 4.8 40.6 61 -2.2 28 0 0
05:29 1004 29.65 833 24.6 4.7 40.5 60 -2.3 27.9 0 0
05:30 1004 29.65 833 24.6 4.7 40.5 61 -2.1 28.3 0 0
05:31 1004 29.65 833 24.6 4.7 40.4 62 -1.9 28.6 0 0
05:32 1004 29.65 833 24.6 4.6 40.3 63 -1.9 28.7 0 0
05:33 1004 29.65 833 24.6 4.6 40.2 63 -1.8 28.7 0 0
05:34 1004 29.65 833 24.6 4.5 40.1 64 -1.8 28.7 0 0
05:35 1004 29.65 833 24.6 4.5 40.1 64 -1.7 28.9 0 0
05:36 1004 29.65 833 24.6 4.5 40 64 -1.7 28.9 0 0
05:37 1004 29.65 833 24.6 4.4 40 65 -1.7 29 0 0
05:38 1004 29.65 833 24.6 4.4 39.9 65 -1.7 29 0 0
05:39 1004 29.65 833 24.6 4.4 39.9 65 -1.6 29.1 0 0
05:40 1004 29.65 833 24.6 4.4 39.9 65 -1.6 29.1 0 0
05:41 1004 29.65 833 24.6 4.3 39.8 65 -1.7 29 0 0
05:42 1004 29.65 833 24.6 4.3 39.8 65 -1.6 29.1 0 0
05:43 1004 29.65 833 24.6 4.3 39.8 65 -1.6 29.1 0 0
05:44 1004 29.65 833 24.6 4.3 39.8 66 -1.5 29.2 0 0
05:45 1004 29.65 833 24.6 4.3 39.7 66 -1.5 29.3 0 0
05:46 1004 29.65 833 24.6 4.3 39.7 66 -1.5 29.4 0 0
05:47 1004 29.65 833 24.6 4.2 39.6 66 -1.5 29.3 0 0
05:48 1004 29.65 833 24.6 4.2 39.6 66 -1.5 29.4 0 0
05:49 1004 29.65 833 24.6 4.2 39.6 67 -1.4 29.5 0 0
05:50 1004 29.65 833 24.6 4.1 39.5 67 -1.5 29.4 0 0
05:51 1004 29.65 833 24.6 4.2 39.5 67 -1.4 29.5 0 0
05:52 1004 29.65 833 24.6 4.1 39.5 67 -1.4 29.5 0 0
05:53 1004 29.65 833 24.6 4.1 39.5 68 -1.3 29.6 0 0
05:54 1004 29.65 833 24.6 4.1 39.3 68 -1.3 29.6 0 0
05:55 1004 29.65 833 24.6 4 39.3 68 -1.3 29.7 0 0
05:56 1004 29.65 833 24.6 4 39.2 68 -1.3 29.7 0 0
05:57 1004 29.65 833 24.6 4 39.2 69 -1.2 29.8 0 0
05:58 1004 29.65 833 24.6 4 39.2 69 -1.2 29.9 0 0
05:59 1004 29.65 833 24.6 4 39.1 69 -1.2 29.9 0 0
06:00 1004 29.65 833 24.6 4 39.1 69 -1.2 29.9 0 0
06:01 1004 29.65 833 24.6 4 39.1 69 -1.2 29.8 0 0
06:02 1004 29.65 833 24.6 4 39.2 69 -1.2 29.9 0 0
06:03 1004 29.65 833 24.6 4 39.2 69 -1.3 29.7 0 0
06:04 1004 29.65 833 24.6 4 39.2 69 -1.2 29.9 0 0
06:05 1004 29.65 833 24.6 4 39.1 69 -1.3 29.7 0 0
06:06 1003 29.62 833 24.6 4 39.2 68 -1.3 29.7 0 0
06:07 1004 29.65 833 24.6 4 39.2 69 -1.2 29.8 0 0
06:08 1004 29.65 833 24.6 4 39.1 69 -1.2 29.8 0 0
06:09 1004 29.65 833 24.6 3.9 39.1 69 -1.2 29.8 0 0
06:10 1004 29.65 833 24.6 3.9 39.1 69 -1.1 29.9 0 0
06:11 1003 29.62 833 24.6 3.9 39 70 -1.1 29.9 0 0
06:12 1003 29.62 833 24.6 3.9 39 70 -1.1 30 0 0
06:13 1003 29.62 833 24.6 3.9 38.9 70 -1.1 29.9 0 0
06:14 1003 29.62 833 24.6 3.8 38.9 70 -1.1 30.1 0 0
06:15 1003 29.62 833 24.6 3.8 38.8 71 -1.1 30 0 0
06:16 1003 29.62 833 24.6 3.8 38.8 71 -1.1 30.1 0 0
06:17 1003 29.62 833 24.6 3.8 38.8 71 -1 30.2 0 0
06:18 1003 29.62 833 24.6 3.7 38.7 71 -1 30.2 0 0
06:19 1003 29.62 833 24.6 3.7 38.7 71 -1 30.2 0 0
06:20 1003 29.62 833 24.6 3.7 38.6 72 -0.9 30.3 0 0
06:21 1003 29.62 833 24.6 3.6 38.6 72 -0.9 30.4 0 0
06:22 1003 29.62 833 24.6 3.6 38.5 73 -0.8 30.5 0 0
06:23 1003 29.62 833 24.6 3.6 38.4 73 -0.9 30.4 0 0
06:24 1003 29.62 833 24.6 3.6 38.4 73 -0.9 30.5 0 0
06:25 1003 29.62 833 24.6 3.5 38.3 73 -0.9 30.4 0 0
06:26 1003 29.62 833 24.6 3.5 38.3 73 -0.9 30.4 0 0
06:27 1003 29.62 833 24.6 3.5 38.3 73 -0.9 30.4 0 0
06:28 1003 29.62 832 24.57 3.5 38.3 73 -0.9 30.4 0 0
06:29 1003 29.62 832 24.57 3.5 38.3 73 -0.9 30.4 0 0
06:30 1003 29.62 832 24.57 3.5 38.3 73 -0.9 30.4 0 0
06:31 1003 29.62 832 24.57 3.5 38.3 73 -0.9 30.4 0 0
06:32 1003 29.62 832 24.57 3.5 38.3 73 -0.9 30.4 0 0
06:33 1003 29.62 832 24.57 3.5 38.3 73 -0.9 30.4 0 0
06:34 1003 29.62 832 24.57 3.5 38.3 73 -0.9 30.4 0 0
06:35 1003 29.62 832 24.57 3.5 38.3 73 -0.9 30.5 0 0
06:36 1003 29.62 832 24.57 3.5 38.3 73 -0.8 30.5 0 0
06:37 1003 29.62 832 24.57 3.5 38.3 73 -0.9 30.4 0 0
06:38 1003 29.62 832 24.57 3.5 38.3 73 -0.8 30.5 0 0
06:39 1003 29.62 832 24.57 3.5 38.3 73 -0.8 30.5 0 0
06:40 1003 29.62 832 24.57 3.5 38.3 73 -0.9 30.4 0 0
06:41 1003 29.62 832 24.57 3.5 38.3 73 -0.9 30.4 0 0
06:42 1003 29.62 832 24.57 3.5 38.3 73 -1 30.3 0 0
06:43 1003 29.62 832 24.57 3.6 38.4 72 -1 30.3 0 0
06:44 1003 29.62 832 24.57 3.6 38.5 72 -0.9 30.3 0 0
06:45 1003 29.62 832 24.57 3.7 38.6 72 -0.9 30.4 0 0
06:46 1003 29.62 832 24.57 3.7 38.6 72 -1 30.2 0 0
06:47 1003 29.62 832 24.57 3.7 38.6 72 -1 30.3 0 0
06:48 1003 29.62 832 24.57 3.7 38.7 72 -1 30.3 0 0
06:49 1003 29.62 832 24.57 3.7 38.6 72 -1 30.2 0 0
06:50 1003 29.62 832 24.57 3.7 38.6 72 -0.9 30.3 0 0
06:51 1003 29.62 832 24.57 3.6 38.6 72 -0.9 30.3 0 0
06:52 1003 29.62 832 24.57 3.6 38.5 72 -0.9 30.3 0 0
06:53 1003 29.62 832 24.57 3.6 38.5 72 -0.9 30.4 0 0
06:54 1003 29.62 832 24.57 3.6 38.5 73 -0.8 30.5 0 0
06:55 1003 29.62 832 24.57 3.6 38.4 72 -0.9 30.4 0 0
06:56 1003 29.62 832 24.57 3.5 38.4 72 -1 30.3 0 0
06:57 1003 29.62 832 24.57 3.6 38.4 72 -1 30.3 0 0
06:58 1003 29.62 832 24.57 3.6 38.4 73 -0.9 30.4 0 0
06:59 1003 29.62 832 24.57 3.6 38.4 73 -0.9 30.4 0 0
07:00 1003 29.62 832 24.57 3.6 38.5 73 -0.8 30.5 0 0
07:01 1003 29.62 832 24.57 3.6 38.5 73 -0.9 30.4 0 0
07:02 1003 29.62 832 24.57 3.6 38.4 72 -1 30.3 0 0
07:03 1003 29.62 832 24.57 3.6 38.5 72 -0.9 30.3 0 0
07:04 1003 29.62 832 24.57 3.6 38.5 72 -0.9 30.4 0 0
07:05 1003 29.62 832 24.57 3.6 38.5 72 -0.9 30.3 0 0
07:06 1003 29.62 832 24.57 3.6 38.5 72 -0.9 30.3 0 0
07:07 1003 29.62 832 24.57 3.6 38.5 72 -0.9 30.4 0 0
07:08 1003 29.62 832 24.57 3.6 38.4 73 -0.9 30.4 0 0
07:09 1003 29.62 832 24.57 3.5 38.4 73 -0.9 30.4 0 0
07:10 1003 29.62 832 24.57 3.6 38.5 73 -0.9 30.4 0 0
07:11 1003 29.62 832 24.57 3.6 38.5 73 -0.9 30.4 0 0
07:12 1003 29.62 832 24.57 3.6 38.5 73 -0.9 30.4 0 0
07:13 1003 29.62 832 24.57 3.6 38.5 72 -1 30.3 0 0
07:14 1003 29.62 832 24.57 3.6 38.5 72 -0.9 30.4 0 0
07:15 1003 29.62 832 24.57 3.6 38.5 72 -0.9 30.4 0 0
07:16 1003 29.62 832 24.57 3.6 38.5 72 -0.9 30.4 0 0
07:17 1003 29.62 832 24.57 3.7 38.6 72 -0.9 30.3 0 0
07:18 1003 29.62 832 24.57 3.7 38.6 72 -0.9 30.3 0 0
07:19 1003 29.62 832 24.57 3.7 38.6 72 -0.9 30.3 0 0
07:20 1003 29.62 832 24.57 3.7 38.6 72 -0.9 30.4 0 0
07:21 1003 29.62 832 24.57 3.7 38.7 72 -1 30.3 0 0
07:22 1003 29.62 832 24.57 3.7 38.7 72 -0.9 30.4 0 0
07:23 1003 29.62 832 24.57 3.7 38.7 72 -0.9 30.3 0 0
07:24 1003 29.62 832 24.57 3.7 38.7 72 -0.9 30.3 0 0
07:25 1003 29.62 832 24.57 3.7 38.7 72 -1 30.3 0 0
07:26 1003 29.62 832 24.57 3.7 38.7 72 -0.9 30.3 0 0
07:27 1003 29.62 832 24.57 3.8 38.8 72 -0.9 30.4 0 0
07:28 1003 29.62 832 24.57 3.8 38.8 72 -0.9 30.4 0 0
07:29 1003 29.62 832 24.57 3.8 38.8 72 -0.8 30.6 0 0
07:30 1003 29.62 832 24.57 3.7 38.7 72 -0.8 30.5 0 0
07:31 1003 29.62 832 24.57 3.7 38.7 73 -0.7 30.7 0 0
07:32 1003 29.62 832 24.57 3.7 38.6 73 -0.8 30.6 0 0
07:33 1003 29.62 832 24.57 3.7 38.7 73 -0.7 30.8 0 0
07:34 1003 29.62 832 24.57 3.7 38.7 73 -0.7 30.7 0 0
07:35 1003 29.62 832 24.57 3.7 38.7 73 -0.8 30.6 0 0
07:36 1003 29.62 832 24.57 3.7 38.7 72 -0.8 30.6 0 0
07:37 1003 29.62 832 24.57 3.8 38.8 72 -0.7 30.7 0 0
07:38 1003 29.62 832 24.57 3.8 38.8 72 -0.8 30.6 0 0
07:39 1003 29.62 832 24.57 3.8 38.8 72 -0.7 30.7 0 0
07:40 1003 29.62 832 24.57 3.8 38.8 72 -0.8 30.5 0 0
07:41 1002 29.59 832 24.57 3.8 38.9 72 -0.7 30.7 0 0
07:42 1002 29.59 832 24.57 3.8 38.9 72 -0.8 30.6 0 0
07:43 1003 29.62 832 24.57 3.8 38.9 72 -0.9 30.5 0 0
07:44 1003 29.62 832 24.57 3.8 38.9 72 -0.8 30.6 0 0
07:45 1003 29.62 832 24.57 3.9 39 72 -0.8 30.6 0 0
07:46 1003 29.62 832 24.57 3.9 39 72 -0.7 30.7 0 0
07:47 1003 29.62 832 24.57 3.9 39 72 -0.7 30.8 0 0
07:48 1003 29.62 832 24.57 3.9 39 72 -0.8 30.6 0 0
07:49 1002 29.59 832 24.57 3.9 39.1 71 -0.8 30.6 0 0
07:50 1002 29.59 832 24.57 3.9 39.1 72 -0.7 30.8 0 0
07:51 1002 29.59 832 24.57 3.9 39 72 -0.8 30.6 0 0
07:52 1002 29.59 832 24.57 3.9 39 72 -0.8 30.6 0 0
07:53 1002 29.59 832 24.57 3.9 39.1 71 -0.8 30.5 0 0
07:54 1002 29.59 831 24.54 3.9 39.1 71 -0.8 30.5 0 0
07:55 1002 29.59 831 24.54 4 39.2 71 -0.8 30.6 0 0
07:56 1002 29.59 831 24.54 4 39.1 71 -0.8 30.6 0 0
07:57 1002 29.59 831 24.54 4 39.1 72 -0.7 30.7 0 0
07:58 1002 29.59 832 24.57 4 39.2 72 -0.6 30.9 0 0
07:59 1002 29.59 832 24.57 4 39.1 73 -0.5 31.1 0 0
08:00 1002 29.59 832 24.57 4 39.1 72 -0.6 30.9 0 0
08:01 1002 29.59 831 24.54 4 39.1 72 -0.7 30.7 0 0
08:02 1002 29.59 831 24.54 4 39.2 71 -0.7 30.7 0 0
08:03 1002 29.59 831 24.54 4 39.2 72 -0.6 30.9 0 0
08:04 1002 29.59 831 24.54 4.1 39.4 72 -0.6 30.9 0 0
08:05 1002 29.59 831 24.54 4.1 39.3 71 -0.7 30.8 0 0
08:06 1002 29.59 831 24.54 4.1 39.3 72 -0.6 30.9 0 0
08:07 1002 29.59 831 24.54 4.1 39.3 71 -0.6 30.9 0 0
08:08 1002 29.59 831 24.54 4.1 39.5 71 -0.7 30.8 0 0
08:09 1002 29.59 831 24.54 4.2 39.5 71 -0.7 30.8 0 0
08:10 1002 29.59 831 24.54 4.2 39.5 70 -0.7 30.7 0 0
08:11 1002 29.59 831 24.54 4.3 39.7 71 -0.6 30.9 0 0
08:12 1002 29.59 831 24.54 4.2 39.6 71 -0.6 31 0 0
08:13 1002 29.59 831 24.54 4.2 39.6 71 -0.6 31 0 0
08:14 1002 29.59 831 24.54 4.2 39.6 71 -0.6 30.9 0 0
08:15 1002 29.59 831 24.54 4.1 39.4 72 -0.6 31 0 0
08:16 1002 29.59 831 24.54 4.1 39.4 72 -0.5 31.1 0 0
08:17 1002 29.59 831 24.54 4 39.3 72 -0.6 30.9 0 0
08:18 1002 29.59 831 24.54 4.1 39.3 72 -0.5 31.1 0 0
08:19 1002 29.59 831 24.54 4.1 39.3 72 -0.6 30.9 0 0
08:20 1002 29.59 831 24.54 4.1 39.4 72 -0.5 31.1 0 0
08:21 1002 29.59 831 24.54 4.1 39.4 72 -0.6 31 0 0
08:22 1002 29.59 831 24.54 4.2 39.5 72 -0.5 31.1 0 0
08:23 1002 29.59 831 24.54 4.2 39.5 73 -0.3 31.5 0 0
08:24 1002 29.59 831 24.54 4.2 39.6 73 -0.3 31.5 0 0
08:25 1002 29.59 831 24.54 4.3 39.7 71 -0.5 31.1 0 0
08:26 1002 29.59 831 24.54 4.3 39.7 72 -0.3 31.4 0 0
08:27 1002 29.59 831 24.54 4.3 39.8 71 -0.4 31.2 0 0
08:28 1002 29.59 831 24.54 4.4 39.9 71 -0.3 31.4 0 0
08:29 1002 29.59 831 24.54 4.4 40 72 -0.2 31.6 0 0
08:30 1002 29.59 831 24.54 4.5 40 71 -0.4 31.2 0 0
08:31 1002 29.59 831 24.54 4.5 40.1 72 -0.2 31.6 0 0
08:32 1002 29.59 831 24.54 4.5 40.1 71 -0.3 31.4 0 0
08:33 1002 29.59 831 24.54 4.5 40.1 72 -0.2 31.7 0 0
08:34 1002 29.59 831 24.54 4.5 40.1 70 -0.4 31.2 0 0
08:35 1002 29.59 831 24.54 4.6 40.2 71 -0.2 31.6 0 0
08:36 1002 29.59 831 24.54 4.7 40.4 70 -0.3 31.5 0 0
08:37 1002 29.59 831 24.54 4.8 40.6 70 -0.3 31.5 0 0
08:38 1002 29.59 831 24.54 4.9 40.8 70 -0.2 31.6 0 0
08:39 1002 29.59 831 24.54 5 40.9 70 -0 32 0 0
08:40 1002 29.59 831 24.54 5 41 69 -0.2 31.6 0 0
08:41 1002 29.59 831 24.54 5.1 41.1 69 -0.1 31.7 0 0
08:42 1002 29.59 831 24.54 5.1 41.2 67 -0.5 31.2 0 0
08:43 1002 29.59 831 24.54 5.2 41.4 66 -0.7 30.8 0 0
08:44 1002 29.59 831 24.54 5.3 41.6 66 -0.5 31.1 0 0
08:45 1002 29.59 831 24.54 5.5 41.8 64 -0.9 30.4 0 0
08:46 1002 29.59 831 24.54 5.4 41.8 63 -1 30.3 0 0
08:47 1002 29.59 831 24.54 5.5 41.8 63 -1.1 30.1 0 0
08:48 1002 29.59 831 24.54 5.6 42 63 -1 30.2 0 0
08:49 1002 29.59 831 24.54 5.6 42 62 -1.2 29.9 0 0
08:50 1002 29.59 831 24.54 5.7 42.2 62 -1.1 30 0 0
08:51 1002 29.59 831 24.54 5.7 42.3 61 -1.2 29.8 0 0
08:52 1002 29.59 831 24.54 5.7 42.2 63 -0.8 30.5 0 0
08:53 1001 29.56 831 24.54 5.6 42.1 64 -0.7 30.7 0 0
08:54 1001 29.56 831 24.54 5.5 42 64 -0.7 30.8 0 0
08:55 1001 29.56 831 24.54 5.5 41.9 66 -0.5 31.2 0 0
08:56 1001 29.56 831 24.54 5.4 41.8 67 -0.2 31.6 0 0
08:57 1001 29.56 831 24.54 5.4 41.7 65 -0.6 31 0 0
08:58 1001 29.56 831 24.54 5.3 41.6 66 -0.5 31.2 0 0
08:59 1001 29.56 831 24.54 5.3 41.5 67 -0.3 31.4 0 0
09:00 1002 29.59 831 24.54 5.3 41.5 66 -0.5 31.2 0 0
09:01 1001 29.56 831 24.54 5.2 41.3 67 -0.3 31.4 0 0
09:02 1002 29.59 831 24.54 5.2 41.4 67 -0.5 31.1 0 0
09:03 1002 29.59 831 24.54 5.1 41.3 66 -0.7 30.8 0 0
09:04 1002 29.59 831 24.54 5.1 41.3 66 -0.7 30.7 0 0
09:05 1002 29.59 831 24.54 5.1 41.2 67 -0.5 31 0 0
09:06 1002 29.59 831 24.54 5.1 41.2 67 -0.5 31.1 0 0
09:07 1002 29.59 831 24.54 5.1 41.2 67 -0.6 31 0 0
09:08 1001 29.56 831 24.54 5.1 41.2 67 -0.5 31.1 0 0
09:09 1002 29.59 831 24.54 5.1 41.2 67 -0.5 31.1 0 0
09:10 1002 29.59 831 24.54 5.1 41.2 68 -0.3 31.4 0 0
09:11 1002 29.59 831 24.54 5.1 41.2 67 -0.4 31.2 0 0
09:12 1002 29.59 831 24.54 5.1 41.2 67 -0.6 31 0 0
09:13 1002 29.59 831 24.54 5.1 41.1 68 -0.4 31.3 0 0
09:14 1002 29.59 831 24.54 5 41.1 68 -0.3 31.4 0 0
09:15 1002 29.59 831 24.54 5.1 41.1 69 -0.1 31.8 0 0
09:16 1002 29.59 831 24.54 5.1 41.2 70 -0 32 0 0
09:17 1002 29.59 831 24.54 5.1 41.1 69 -0.2 31.6 0 0
09:18 1002 29.59 831 24.54 5 41 70 -0.1 31.8 0 0
09:19 1002 29.59 831 24.54 4.7 40.5 72 0 32 0 0
09:20 1002 29.59 831 24.54 4.3 39.7 74 0.1 32.1 0 0
09:21 1002 29.59 831 24.54 3.9 39 76 0.1 32.1 0 0
09:22 1002 29.59 831 24.54 3.6 38.4 79 0.2 32.4 0 0
09:23 1002 29.59 831 24.54 3.4 38 80 0.3 32.5 0 0
09:24 1002 29.59 831 24.54 3.2 37.7 81 0.2 32.4 0 0
09:25 1002 29.59 832 24.57 3 37.3 81 0 32 0 0
09:26 1002 29.59 832 24.57 2.6 36.6 83 0 32 0 0
09:27 1002 29.59 832 24.57 2.2 35.9 85 -0.1 31.9 0 0
09:28 1003 29.62 832 24.57 1.9 35.3 87 -0.1 31.9 0 0
09:29 1002 29.59 832 24.57 1.5 34.7 89 -0.1 31.8 0 0
09:30 1003 29.62 832 24.57 1.2 34.2 90 -0.2 31.6 0 0
09:31 1003 29.62 832 24.57 1 33.8 92 -0.2 31.6 0 0
09:32 1003 29.62 832 24.57 0.8 33.5 93 -0.2 31.6 0 0
09:33 1003 29.62 832 24.57 0.7 33.3 94 -0.2 31.7 0 0
09:34 1003 29.62 832 24.57 0.6 33.1 94 -0.2 31.6 0 0
09:35 1003 29.62 832 24.57 0.6 33 95 -0.2 31.6 0 0
09:36 1003 29.62 832 24.57 0.4 32.8 95 -0.3 31.5 0 0
09:37 1003 29.62 832 24.57 0.4 32.6 95 -0.3 31.5 0 0
09:38 1003 29.62 832 24.57 0.2 32.4 96 -0.3 31.4 0 0
09:39 1003 29.62 832 24.57 0.2 32.4 96 -0.3 31.4 0 0
09:40 1003 29.62 832 24.57 0.1 32.2 96 -0.4 31.2 0 0
09:41 1003 29.62 832 24.57 0 32.1 97 -0.4 31.3 0 0
09:42 1003 29.62 832 24.57 -0 32 97 -0.4 31.2 0 0
09:43 1003 29.62 832 24.57 -0.1 31.9 97 -0.5 31.1 0 0
09:44 1003 29.62 832 24.57 -0.1 31.8 97 -0.5 31.1 0 0
09:45 1003 29.62 832 24.57 -0.2 31.7 98 -0.5 31 0 0
09:46 1003 29.62 832 24.57 -0.3 31.5 98 -0.6 30.9 0 0
09:47 1003 29.62 832 24.57 -0.3 31.5 98 -0.6 30.9 0 0
09:48 1003 29.62 832 24.57 -0.4 31.4 98 -0.6 30.8 0 0
09:49 1003 29.62 832 24.57 -0.4 31.3 98 -0.7 30.8 0 0
09:50 1003 29.62 832 24.57 -0.5 31.1 98 -0.7 30.7 0 0
09:51 1003 29.62 832 24.57 -0.5 31 98 -0.8 30.6 0 0
09:52 1003 29.62 832 24.57 -0.6 30.9 99 -0.8 30.5 0 0
09:53 1003 29.62 832 24.57 -0.6 30.9 99 -0.8 30.6 0 0
09:54 1003 29.62 832 24.57 -0.6 30.9 99 -0.8 30.6 0 0
09:55 1003 29.62 833 24.6 -0.7 30.8 99 -0.8 30.5 0 0
09:56 1003 29.62 833 24.6 -0.7 30.8 99 -0.8 30.5 0 0
09:57 1003 29.62 833 24.6 -0.7 30.8 99 -0.8 30.5 0 0
09:58 1003 29.62 833 24.6 -0.7 30.7 99 -0.8 30.5 0 0
09:59 1004 29.65 833 24.6 -0.7 30.7 99 -0.8 30.5 0 0
10:00 1004 29.65 833 24.6 -0.7 30.8 99 -0.8 30.6 0 0
10:01 1004 29.65 833 24.6 -0.7 30.7 99 -0.8 30.6 0 0
10:02 1004 29.65 833 24.6 -0.7 30.7 100 -0.8 30.6 0 0
10:03 1004 29.65 833 24.6 -0.7 30.7 100 -0.8 30.6 0 0
10:04 1004 29.65 833 24.6 -0.8 30.6 100 -0.8 30.5 0 0
10:05 1004 29.65 833 24.6 -0.8 30.6 100 -0.8 30.5 0 0
10:06 1004 29.65 833 24.6 -0.7 30.7 100 -0.8 30.6 0 0
10:07 1004 29.65 833 24.6 -0.7 30.7 100 -0.8 30.6 0 0
10:08 1004 29.65 833 24.6 -0.7 30.7 100 -0.8 30.6 0 0
10:09 1004 29.65 833 24.6 -0.8 30.6 100 -0.8 30.6 0 0
10:10 1004 29.65 833 24.6 -0.8 30.6 100 -0.8 30.6 0 0
10:11 1004 29.65 833 24.6 -0.7 30.7 100 -0.8 30.6 0 0
10:12 1004 29.65 833 24.6 -0.7 30.7 100 -0.8 30.6 0 0
10:13 1004 29.65 833 24.6 -0.7 30.7 100 -0.8 30.6 0 0
10:14 1004 29.65 833 24.6 -0.7 30.7 100 -0.7 30.7 0 0
10:15 1004 29.65 833 24.6 -0.8 30.6 100 -0.8 30.6 0 0
10:16 1004 29.65 833 24.6 -0.7 30.7 100 -0.7 30.7 0 0
10:17 1004 29.65 833 24.6 -0.7 30.7 100 -0.7 30.7 0 0
10:18 1004 29.65 833 24.6 -0.7 30.7 100 -0.7 30.7 0 0
10:19 1004 29.65 833 24.6 -0.7 30.7 100 -0.7 30.7 0 0
10:20 1004 29.65 833 24.6 -0.7 30.7 100 -0.7 30.7 0 0
10:21 1004 29.65 833 24.6 -0.7 30.7 100 -0.7 30.7 0 0
10:22 1004 29.65 833 24.6 -0.7 30.8 100 -0.7 30.8 0 0
10:23 1004 29.65 833 24.6 -0.7 30.7 100 -0.7 30.7 0 0
10:24 1004 29.65 833 24.6 -0.7 30.8 100 -0.7 30.8 0 0
10:25 1004 29.65 833 24.6 -0.7 30.8 100 -0.7 30.8 0 0
10:26 1004 29.65 833 24.6 -0.7 30.8 100 -0.7 30.8 0 0
10:27 1004 29.65 833 24.6 -0.7 30.8 100 -0.7 30.8 0 0
10:28 1004 29.65 833 24.6 -0.7 30.8 100 -0.7 30.8 0 0
10:29 1004 29.65 833 24.6 -0.7 30.7 100 -0.7 30.7 0 0
10:30 1004 29.65 833 24.6 -0.7 30.8 100 -0.7 30.8 0 0
10:31 1004 29.65 833 24.6 -0.7 30.8 100 -0.7 30.8 0 0
10:32 1004 29.65 833 24.6 -0.7 30.8 100 -0.7 30.8 0 0
10:33 1004 29.65 833 24.6 -0.6 30.8 100 -0.6 30.8 0 0
10:34 1004 29.65 833 24.6 -0.6 30.8 100 -0.6 30.8 0 0
10:35 1004 29.65 833 24.6 -0.7 30.8 100 -0.7 30.8 0 0
10:36 1004 29.65 833 24.6 -0.6 30.8 100 -0.6 30.8 0 0
10:37 1004 29.65 833 24.6 -0.6 30.9 100 -0.6 30.9 0 0
10:38 1004 29.65 833 24.6 -0.6 30.8 100 -0.6 30.8 0 0
10:39 1004 29.65 833 24.6 -0.6 30.9 100 -0.6 30.9 0 0
10:40 1004 29.65 833 24.6 -0.6 30.9 100 -0.6 30.9 0 0
10:41 1004 29.65 833 24.6 -0.6 30.9 100 -0.6 30.9 0 0
10:42 1004 29.65 833 24.6 -0.6 30.9 100 -0.6 30.9 0 0
10:43 1004 29.65 833 24.6 -0.6 30.9 100 -0.6 30.9 0 0
10:44 1004 29.65 833 24.6 -0.6 30.9 100 -0.6 30.9 0 0
10:45 1004 29.65 833 24.6 -0.6 30.9 100 -0.6 30.9 0 0
10:46 1004 29.65 833 24.6 -0.6 30.9 100 -0.6 30.9 0 0
10:47 1004 29.65 833 24.6 -0.6 30.9 100 -0.6 30.9 0 0
10:48 1004 29.65 833 24.6 -0.6 31 100 -0.6 31 0 0
10:49 1004 29.65 833 24.6 -0.6 31 100 -0.6 31 0 0
10:50 1004 29.65 833 24.6 -0.6 30.9 100 -0.6 30.9 0 0
10:51 1004 29.65 833 24.6 -0.5 31 100 -0.5 31 0 0
10:52 1004 29.65 833 24.6 -0.5 31.1 100 -0.5 31.1 0 0
10:53 1004 29.65 833 24.6 -0.6 31 100 -0.6 31 0 0
10:54 1004 29.65 833 24.6 -0.5 31.1 100 -0.5 31.1 0 0
10:55 1004 29.65 833 24.6 -0.5 31 100 -0.5 31 0 0
10:56 1004 29.65 833 24.6 -0.5 31 100 -0.5 31 0 0
10:57 1004 29.65 833 24.6 -0.5 31.1 100 -0.5 31.1 0 0
10:58 1004 29.65 833 24.6 -0.5 31.1 100 -0.5 31.1 .2 0.008
10:59 1004 29.65 833 24.6 -0.5 31.1 100 -0.5 31.1 0 0
11:00 1004 29.65 833 24.6 -0.5 31.1 100 -0.5 31.1 0 0
11:01 1004 29.65 833 24.6 -0.5 31.1 100 -0.5 31.1 .2 0.008
11:02 1004 29.65 833 24.6 -0.5 31.1 100 -0.5 31.1 .2 0.008
11:03 1004 29.65 833 24.6 -0.5 31.1 100 -0.5 31.1 0 0
11:04 1004 29.65 833 24.6 -0.5 31.1 100 -0.5 31.1 .2 0.008
11:05 1004 29.65 833 24.6 -0.5 31.1 100 -0.5 31.1 0 0
11:06 1004 29.65 833 24.6 -0.5 31.2 100 -0.5 31.2 0 0
11:07 1003 29.62 833 24.6 -0.5 31.1 100 -0.5 31.1 .2 0.008
11:08 1003 29.62 833 24.6 -0.5 31.1 100 -0.5 31.1 0 0
11:09 1003 29.62 833 24.6 -0.5 31.1 100 -0.5 31.1 0 0
11:10 1003 29.62 833 24.6 -0.5 31.1 100 -0.5 31.1 .2 0.008
11:11 1003 29.62 833 24.6 -0.5 31.1 100 -0.5 31.1 0 0
11:12 1004 29.65 833 24.6 -0.4 31.2 100 -0.4 31.2 .2 0.008
11:13 1004 29.65 833 24.6 -0.5 31.2 100 -0.5 31.2 0 0
11:14 1004 29.65 833 24.6 -0.4 31.2 100 -0.4 31.2 .2 0.008
11:15 1004 29.65 833 24.6 -0.4 31.3 100 -0.4 31.3 0 0
11:16 1004 29.65 833 24.6 -0.4 31.3 100 -0.4 31.3 .2 0.008
11:17 1004 29.65 833 24.6 -0.4 31.4 100 -0.4 31.4 0 0
11:18 1004 29.65 833 24.6 -0.3 31.4 100 -0.3 31.4 0 0
11:19 1004 29.65 833 24.6 -0.4 31.4 100 -0.4 31.4 .4 0.016
11:20 1004 29.65 833 24.6 -0.3 31.4 100 -0.3 31.4 0 0
11:21 1004 29.65 833 24.6 -0.4 31.4 100 -0.4 31.4 .2 0.008
11:22 1004 29.65 833 24.6 -0.3 31.4 100 -0.3 31.4 0 0
11:23 1004 29.65 833 24.6 -0.3 31.4 100 -0.3 31.4 0 0
11:24 1004 29.65 833 24.6 -0.3 31.4 100 -0.3 31.4 .2 0.008
11:25 1003 29.62 833 24.6 -0.3 31.4 100 -0.3 31.4 0 0
11:26 1003 29.62 833 24.6 -0.3 31.5 100 -0.3 31.5 0 0
11:27 1003 29.62 833 24.6 -0.3 31.5 100 -0.3 31.5 0 0
11:28 1003 29.62 833 24.6 -0.3 31.5 100 -0.3 31.5 .2 0.008
11:29 1003 29.62 833 24.6 -0.2 31.6 100 -0.2 31.6 0 0
11:30 1003 29.62 833 24.6 -0.2 31.7 100 -0.2 31.7 .2 0.008
11:31 1003 29.62 833 24.6 -0.2 31.7 100 -0.2 31.7 0 0
11:32 1003 29.62 833 24.6 -0.2 31.7 100 -0.2 31.7 0 0
11:33 1003 29.62 832 24.57 -0.1 31.8 100 -0.1 31.8 .2 0.008
11:34 1003 29.62 832 24.57 -0.1 31.9 100 -0.1 31.9 0 0
11:35 1003 29.62 832 24.57 -0 32 100 -0 32 0 0
11:36 1003 29.62 832 24.57 0.1 32.1 100 0.1 32.1 .2 0.008
11:37 1003 29.62 832 24.57 0.1 32.1 100 0.1 32.1 0 0
11:38 1003 29.62 832 24.57 0.2 32.3 100 0.2 32.3 .2 0.008
11:39 1003 29.62 832 24.57 0.2 32.4 100 0.2 32.4 .2 0.008
11:40 1003 29.62 832 24.57 0.2 32.4 100 0.2 32.4 0 0
11:41 1003 29.62 832 24.57 0.3 32.5 100 0.3 32.5 .2 0.008
11:42 1003 29.62 832 24.57 0.3 32.6 100 0.3 32.6 0 0
11:43 1003 29.62 832 24.57 0.3 32.6 100 0.3 32.6 0 0
11:44 1003 29.62 832 24.57 0.4 32.6 100 0.4 32.6 0 0
11:45 1003 29.62 832 24.57 0.4 32.7 100 0.4 32.7 0 0
11:46 1003 29.62 832 24.57 0.4 32.8 100 0.4 32.8 0 0
11:47 1003 29.62 832 24.57 0.6 33 100 0.6 33 0 0
11:48 1003 29.62 832 24.57 0.7 33.2 100 0.7 33.2 0 0
11:49 1003 29.62 832 24.57 0.6 33.1 100 0.6 33.1 0 0
11:50 1003 29.62 832 24.57 0.7 33.2 100 0.7 33.2 0 0
11:51 1003 29.62 832 24.57 0.6 33.1 100 0.6 33.1 0 0
11:52 1003 29.62 832 24.57 0.7 33.2 100 0.7 33.2 0 0
11:53 1003 29.62 832 24.57 0.7 33.2 100 0.7 33.2 0 0
11:54 1003 29.62 832 24.57 0.7 33.3 100 0.7 33.3 0 0
11:55 1003 29.62 832 24.57 0.7 33.3 100 0.7 33.3 0 0
11:56 1003 29.62 832 24.57 0.7 33.2 100 0.7 33.2 0 0
11:57 1003 29.62 832 24.57 0.7 33.3 100 0.7 33.3 0 0
11:58 1003 29.62 832 24.57 0.7 33.2 100 0.7 33.2 0 0
11:59 1003 29.62 832 24.57 0.7 33.3 100 0.7 33.3 0 0
12:00 1003 29.62 832 24.57 0.7 33.3 100 0.7 33.3 0 0
12:01 1003 29.62 832 24.57 0.7 33.2 100 0.7 33.2 0 0
12:02 1003 29.62 832 24.57 0.7 33.3 100 0.7 33.3 0 0
12:03 1003 29.62 832 24.57 0.7 33.3 100 0.7 33.3 0 0
12:04 1003 29.62 832 24.57 0.7 33.2 100 0.7 33.2 0 0
12:05 1003 29.62 832 24.57 0.7 33.2 100 0.7 33.2 0 0
12:06 1003 29.62 832 24.57 0.7 33.3 100 0.7 33.3 0 0
12:07 1003 29.62 832 24.57 0.8 33.4 100 0.8 33.4 0 0
12:08 1003 29.62 832 24.57 0.8 33.5 100 0.8 33.5 0 0
12:09 1003 29.62 832 24.57 0.9 33.6 100 0.9 33.6 0 0
12:10 1003 29.62 832 24.57 0.9 33.6 100 0.9 33.6 0 0
12:11 1003 29.62 832 24.57 1 33.9 100 1 33.9 0 0
12:12 1003 29.62 832 24.57 1.2 34.1 100 1.2 34.1 0 0
12:13 1003 29.62 832 24.57 1.2 34.2 100 1.2 34.2 0 0
12:14 1003 29.62 832 24.57 1.3 34.3 100 1.3 34.3 0 0
12:15 1003 29.62 832 24.57 1.3 34.4 100 1.3 34.4 0 0
12:16 1003 29.62 832 24.57 1.4 34.5 100 1.4 34.5 0 0
12:17 1003 29.62 832 24.57 1.4 34.4 100 1.4 34.4 0 0
12:18 1003 29.62 832 24.57 1.4 34.5 100 1.4 34.5 0 0
12:19 1003 29.62 832 24.57 1.4 34.5 100 1.4 34.5 0 0
12:20 1003 29.62 832 24.57 1.5 34.6 100 1.5 34.6 0 0
12:21 1003 29.62 832 24.57 1.5 34.7 100 1.5 34.7 0 0
12:22 1003 29.62 832 24.57 1.5 34.6 100 1.5 34.6 0 0
12:23 1003 29.62 832 24.57 1.5 34.6 100 1.5 34.6 0 0
12:24 1003 29.62 832 24.57 1.5 34.8 100 1.5 34.8 0 0
12:25 1003 29.62 832 24.57 1.5 34.7 100 1.5 34.7 0 0
12:26 1003 29.62 832 24.57 1.6 34.9 100 1.6 34.9 0 0
12:27 1003 29.62 832 24.57 1.7 35 100 1.7 35 0 0
12:28 1003 29.62 832 24.57 1.7 35.1 100 1.7 35.1 0 0
12:29 1003 29.62 832 24.57 1.7 35 100 1.7 35 0 0
12:30 1003 29.62 832 24.57 1.6 34.8 100 1.6 34.8 0 0
12:31 1003 29.62 832 24.57 1.6 34.9 100 1.6 34.8 0 0
12:32 1003 29.62 832 24.57 1.5 34.7 100 1.5 34.7 0 0
12:33 1003 29.62 832 24.57 1.6 34.8 100 1.5 34.8 0 0
12:34 1003 29.62 832 24.57 1.6 34.9 100 1.6 34.9 0 0
12:35 1003 29.62 832 24.57 1.7 35 100 1.7 35 0 0
12:36 1003 29.62 832 24.57 1.7 35 100 1.7 35 0 0
12:37 1003 29.62 832 24.57 1.7 35 100 1.6 34.9 0 0
12:38 1003 29.62 832 24.57 1.6 34.9 100 1.6 34.8 0 0
12:39 1003 29.62 832 24.57 1.6 34.9 100 1.5 34.8 0 0
12:40 1003 29.62 832 24.57 1.5 34.7 100 1.5 34.6 0 0
12:41 1003 29.62 832 24.57 1.6 34.8 100 1.5 34.7 0 0
12:42 1003 29.62 832 24.57 1.6 34.9 100 1.6 34.8 0 0
12:43 1003 29.62 832 24.57 1.6 35 100 1.6 34.9 0 0
12:44 1003 29.62 832 24.57 1.6 34.9 100 1.6 34.8 0 0
12:45 1003 29.62 832 24.57 1.6 34.9 100 1.6 34.9 0 0
12:46 1003 29.62 832 24.57 1.7 35 100 1.6 35 0 0
12:47 1003 29.62 832 24.57 1.7 35 100 1.6 35 0 0
12:48 1003 29.62 832 24.57 1.7 35.1 100 1.7 35.1 0 0
12:49 1003 29.62 832 24.57 1.6 34.9 100 1.6 34.9 0 0
12:50 1003 29.62 832 24.57 1.5 34.7 100 1.5 34.7 0 0
12:51 1003 29.62 832 24.57 1.4 34.6 100 1.4 34.5 0 0
12:52 1003 29.62 832 24.57 1.4 34.6 100 1.4 34.6 0 0
12:53 1003 29.62 832 24.57 1.4 34.5 100 1.4 34.5 0 0
12:54 1003 29.62 832 24.57 1.4 34.5 100 1.3 34.4 0 0
12:55 1003 29.62 832 24.57 1.4 34.4 100 1.3 34.4 0 0
12:56 1003 29.62 832 24.57 1.4 34.5 100 1.4 34.5 0 0
12:57 1003 29.62 832 24.57 1.5 34.7 100 1.5 34.6 0 0
12:58 1003 29.62 832 24.57 1.6 34.9 100 1.6 34.9 0 0
12:59 1003 29.62 832 24.57 1.7 35 100 1.7 35 0 0
13:00 1003 29.62 832 24.57 2.1 35.8 100 2.1 35.7 0 0
13:01 1003 29.62 832 24.57 2.3 36.2 100 2.3 36.2 0 0
13:02 1003 29.62 832 24.57 2.4 36.4 100 2.4 36.4 0 0
13:03 1003 29.62 832 24.57 2.4 36.4 100 2.4 36.4 0 0
13:04 1003 29.62 832 24.57 2.5 36.5 100 2.5 36.5 0 0
13:05 1003 29.62 832 24.57 2.5 36.5 100 2.5 36.5 0 0
13:06 1003 29.62 832 24.57 2.6 36.8 100 2.6 36.7 0 0
13:07 1003 29.62 832 24.57 2.6 36.6 99 2.5 36.5 0 0
13:08 1003 29.62 832 24.57 2.6 36.7 99 2.4 36.4 0 0
13:09 1003 29.62 832 24.57 2.6 36.6 98 2.3 36.2 0 0
13:10 1003 29.62 832 24.57 2.5 36.5 98 2.2 36 0 0
13:11 1003 29.62 832 24.57 2.4 36.3 98 2.1 35.8 0 0
13:12 1002 29.59 832 24.57 2.4 36.3 98 2.1 35.8 0 0
13:13 1003 29.62 832 24.57 2.4 36.4 99 2.2 36 0 0
13:14 1002 29.59 832 24.57 2.5 36.5 99 2.3 36.2 0 0
13:15 1002 29.59 832 24.57 2.6 36.6 99 2.3 36.2 0 0
13:16 1002 29.59 832 24.57 2.5 36.5 98 2.3 36.1 0 0
13:17 1002 29.59 832 24.57 2.5 36.5 99 2.3 36.1 0 0
13:18 1002 29.59 832 24.57 2.5 36.5 98 2.2 36 0 0
13:19 1002 29.59 832 24.57 2.5 36.5 98 2.2 35.9 0 0
13:20 1002 29.59 832 24.57 2.5 36.5 98 2.2 35.9 0 0
13:21 1002 29.59 832 24.57 2.6 36.7 98 2.3 36.2 0 0
13:22 1002 29.59 832 24.57 2.8 37 99 2.5 36.6 0 0
13:23 1002 29.59 832 24.57 2.9 37.3 99 2.8 37 0 0
13:24 1002 29.59 832 24.57 3 37.4 98 2.8 37 0 0
13:25 1002 29.59 832 24.57 3.1 37.5 98 2.8 37.1 0 0
13:26 1002 29.59 832 24.57 3.2 37.8 99 3 37.4 0 0
13:27 1002 29.59 832 24.57 3.4 38.1 98 3.1 37.6 0 0
13:28 1002 29.59 832 24.57 3.3 38 97 2.9 37.3 0 0
13:29 1002 29.59 832 24.57 3.3 37.9 96 2.7 36.9 0 0
13:30 1002 29.59 832 24.57 3.2 37.8 96 2.6 36.6 0 0
13:31 1002 29.59 832 24.57 3 37.5 96 2.5 36.4 0 0
13:32 1002 29.59 832 24.57 3 37.4 96 2.4 36.4 0 0
13:33 1002 29.59 832 24.57 3 37.3 96 2.4 36.3 0 0
13:34 1002 29.59 831 24.54 3 37.4 97 2.6 36.6 0 0
13:35 1002 29.59 831 24.54 3.1 37.6 97 2.6 36.7 0 0
13:36 1002 29.59 831 24.54 3 37.5 96 2.5 36.5 0 0
13:37 1002 29.59 831 24.54 3.1 37.6 97 2.7 36.8 0 0
13:38 1002 29.59 831 24.54 3.1 37.6 97 2.6 36.7 0 0
13:39 1002 29.59 831 24.54 3.1 37.6 97 2.6 36.7 0 0
13:40 1002 29.59 831 24.54 3.2 37.7 96 2.7 36.8 0 0
13:41 1002 29.59 831 24.54 3.3 38 98 3 37.4 0 0
13:42 1002 29.59 831 24.54 3.6 38.5 98 3.4 38 0 0
13:43 1002 29.59 831 24.54 3.7 38.7 96 3.1 37.7 0 0
13:44 1002 29.59 831 24.54 3.5 38.3 92 2.4 36.2 0 0
13:45 1002 29.59 831 24.54 3.4 38 94 2.5 36.6 0 0
13:46 1002 29.59 831 24.54 3.5 38.3 95 2.8 37 0 0
13:47 1002 29.59 831 24.54 3.5 38.3 96 2.9 37.2 0 0
13:48 1002 29.59 831 24.54 3.5 38.3 96 2.9 37.1 0 0
13:49 1002 29.59 831 24.54 3.4 38.2 96 2.9 37.2 0 0
13:50 1002 29.59 831 24.54 3.5 38.3 96 2.9 37.2 0 0
13:51 1002 29.59 831 24.54 3.6 38.5 97 3.1 37.6 0 0
13:52 1002 29.59 831 24.54 3.8 38.8 97 3.3 37.9 0 0
13:53 1002 29.59 831 24.54 3.8 38.9 96 3.2 37.8 0 0
13:54 1002 29.59 831 24.54 3.8 38.9 95 3.2 37.7 0 0
13:55 1002 29.59 831 24.54 3.9 38.9 93 2.9 37.1 0 0
13:56 1002 29.59 831 24.54 3.7 38.7 93 2.7 36.8 0 0
13:57 1002 29.59 831 24.54 3.7 38.7 94 2.8 37 0 0
13:58 1002 29.59 831 24.54 3.6 38.6 94 2.7 36.9 0 0
13:59 1002 29.59 831 24.54 3.6 38.5 94 2.8 37 0 0
14:00 1002 29.59 831 24.54 3.6 38.5 94 2.7 36.9 0 0
14:01 1002 29.59 831 24.54 3.6 38.4 94 2.8 37 0 0
14:02 1002 29.59 831 24.54 3.6 38.5 96 3 37.4 0 0
14:03 1001 29.56 831 24.54 3.6 38.5 96 3 37.4 0 0
14:04 1001 29.56 831 24.54 3.7 38.6 96 3.1 37.6 0 0
14:05 1001 29.56 831 24.54 3.8 38.8 94 2.9 37.2 0 0
14:06 1001 29.56 831 24.54 3.7 38.7 95 3 37.3 0 0
14:07 1001 29.56 831 24.54 3.6 38.5 94 2.7 36.9 0 0
14:08 1001 29.56 831 24.54 3.7 38.6 96 3.1 37.6 0 0
14:09 1001 29.56 831 24.54 3.9 39 95 3.1 37.6 0 0
14:10 1001 29.56 831 24.54 4 39.1 95 3.3 37.9 0 0
14:11 1001 29.56 831 24.54 4 39.3 95 3.4 38.1 0 0
14:12 1001 29.56 831 24.54 4.1 39.4 91 2.8 37 0 0
14:13 1001 29.56 830 24.51 4.1 39.3 93 3 37.4 0 0
14:14 1001 29.56 830 24.51 4 39.1 89 2.4 36.3 0 0
14:15 1001 29.56 830 24.51 3.9 39 90 2.4 36.3 0 0
14:16 1001 29.56 830 24.51 3.8 38.9 92 2.7 36.9 0 0
14:17 1001 29.56 830 24.51 3.9 39 93 2.8 37.1 0 0
14:18 1001 29.56 830 24.51 4 39.3 93 3 37.4 0 0
14:19 1001 29.56 830 24.51 4.2 39.6 90 2.7 36.8 0 0
14:20 1001 29.56 830 24.51 4.2 39.5 87 2.1 35.8 0 0
14:21 1001 29.56 830 24.51 4.2 39.5 88 2.3 36.2 0 0
14:22 1001 29.56 830 24.51 4.1 39.4 86 1.9 35.4 0 0
14:23 1001 29.56 830 24.51 4.1 39.4 83 1.6 34.8 0 0
14:24 1001 29.56 830 24.51 4.1 39.4 78 0.7 33.2 0 0
14:25 1001 29.56 830 24.51 3.9 39.1 82 1.1 34 0 0
14:26 1001 29.56 830 24.51 3.7 38.7 85 1.4 34.6 0 0
14:27 1001 29.56 830 24.51 3.7 38.7 84 1.2 34.2 0 0
14:28 1001 29.56 830 24.51 3.6 38.6 86 1.6 34.8 0 0
14:29 1001 29.56 830 24.51 3.7 38.7 84 1.2 34.2 0 0
14:30 1001 29.56 830 24.51 3.8 38.9 85 1.5 34.7 0 0
14:31 1001 29.56 830 24.51 4 39.2 79 0.8 33.4 0 0
14:32 1001 29.56 830 24.51 4.1 39.4 80 1 33.8 0 0
14:33 1001 29.56 830 24.51 4.1 39.4 81 1.1 34 0 0
14:34 1001 29.56 830 24.51 4.3 39.8 73 -0 31.9 0 0
14:35 1001 29.56 830 24.51 4.3 39.8 74 0.1 32.2 0 0
14:36 1001 29.56 830 24.51 4.2 39.5 76 0.3 32.5 0 0
14:37 1001 29.56 830 24.51 4 39.2 72 -0.5 31.1 0 0
14:38 1001 29.56 830 24.51 4 39.3 69 -1.2 29.9 0 0
14:39 1001 29.56 830 24.51 4.1 39.3 77 0.3 32.6 0 0
14:40 1001 29.56 830 24.51 4.1 39.4 72 -0.4 31.2 0 0
14:41 1001 29.56 830 24.51 4.3 39.8 77 0.7 33.3 0 0
14:42 1001 29.56 830 24.51 4.6 40.2 76 0.8 33.4 0 0
14:43 1001 29.56 831 24.54 4.7 40.4 69 -0.4 31.2 0 0
14:44 1001 29.56 831 24.54 4.7 40.4 70 -0.4 31.4 0 0
14:45 1001 29.56 831 24.54 4.7 40.4 73 0.2 32.3 0 0
14:46 1001 29.56 831 24.54 4.8 40.6 67 -0.8 30.6 0 0
14:47 1001 29.56 831 24.54 4.8 40.6 72 0.1 32.3 0 0
14:48 1001 29.56 831 24.54 4.9 40.8 66 -1 30.2 0 0
14:49 1001 29.56 831 24.54 4.9 40.8 63 -1.5 29.4 0 0
14:50 1001 29.56 831 24.54 5 40.9 62 -1.7 28.9 0 0
14:51 1001 29.56 831 24.54 5 41.1 60 -2.2 28.1 0 0
14:52 1001 29.56 831 24.54 5.1 41.1 63 -1.4 29.5 0 0
14:53 1001 29.56 831 24.54 5.1 41.2 59 -2.1 28.1 0 0
14:54 1001 29.56 831 24.54 5.2 41.4 59 -2.2 28 0 0
14:55 1001 29.56 831 24.54 5.3 41.6 61 -1.6 29.1 0 0
14:56 1001 29.56 831 24.54 5.5 41.9 56 -2.7 27.1 0 0
14:57 1001 29.56 831 24.54 5.6 42 60 -1.5 29.2 0 0
14:58 1001 29.56 831 24.54 5.7 42.2 60 -1.6 29.2 0 0
14:59 1001 29.56 831 24.54 5.8 42.4 57 -2.1 28.3 0 0
15:00 1001 29.56 831 24.54 5.8 42.4 61 -1.2 29.9 0 0
15:01 1001 29.56 831 24.54 5.8 42.5 55 -2.6 27.4 0 0
15:02 1001 29.56 831 24.54 5.9 42.6 59 -1.5 29.2 0 0
15:03 1001 29.56 831 24.54 5.9 42.7 54 -2.6 27.4 0 0
15:04 1001 29.56 831 24.54 5.9 42.6 49 -3.9 25 0 0
15:05 1001 29.56 831 24.54 5.8 42.5 52 -3.3 26 0 0
15:06 1001 29.56 831 24.54 5.8 42.4 50 -3.9 24.9 0 0